Koushinmaru — JD3754 — position and weather

sailwx.info

Track history (hours):
 
Tides and Currents Weather Stations Pressure Air Temp Water Temp Dewpoint Dewpoint Depression Visibility Wind Speed Wind Dir Waves Ship Positions

Koushinmaru

Last reported at 2017-Sep-24 06:00 UTC. Time now 2017-Sep-24 19:23 UTC.
Position N 34°37' E 134°57'.

Length 75 m; draft 4.3 m.

Type: Ship. MMSI: 431005815.

Date/timePositionNaut miles runAvg speedWind from/ knotsBaromVisibWave heightAir tempDewpointWater temp
2017-Sep-24 06:00N 34°37' E 134°57'510.2
2017-Sep-24 05:30N 34°36' E 135°03'612.2
2017-Sep-24 05:00N 34°35' E 135°10'712.9
2017-Sep-24 04:29N 34°33' E 135°18'613.0
2017-Sep-24 04:00N 34°33' E 135°26'0 0.3
2017-Sep-24 02:33N 34°34' E 135°26'0 0.0
2017-Sep-24 02:30N 34°34' E 135°26'0 0.0
2017-Sep-24 01:27N 34°34' E 135°26'1 1.2
2017-Sep-24 01:00N 34°33' E 135°25'4 7.6
2017-Sep-24 00:30N 34°33' E 135°21'3 5.1
2017-Sep-24 00:00N 34°33' E 135°18'0 0.0
2017-Sep-23 23:30N 34°33' E 135°18'0 0.0
2017-Sep-23 23:00N 34°33' E 135°18'0 0.0
2017-Sep-23 22:30N 34°33' E 135°18'0 0.0
2017-Sep-23 22:00N 34°33' E 135°18'0 0.0
2017-Sep-23 21:30N 34°33' E 135°18'0 0.0
2017-Sep-23 21:00N 34°33' E 135°18'0 0.0
2017-Sep-23 20:30N 34°33' E 135°18'0 0.0
2017-Sep-23 20:00N 34°33' E 135°18'  
2017-Sep-15 12:42N 34°36' E 134°54'212.0
2017-Sep-15 12:30N 34°37' E 134°57'510.2
2017-Sep-15 12:00N 34°36' E 135°03'612.3
2017-Sep-15 11:30N 34°35' E 135°10'612.8
2017-Sep-15 11:00N 34°34' E 135°18'612.7
2017-Sep-15 10:30N 34°33' E 135°25'1 0.2
2017-Sep-15 07:19N 34°34' E 135°26'0 0.1
2017-Sep-15 06:54N 34°34' E 135°26'1 1.6
2017-Sep-15 06:30N 34°33' E 135°25'3 6.3
2017-Sep-15 06:00N 34°33' E 135°22'3 6.2
2017-Sep-15 05:30N 34°32' E 135°18'0 0.0
2017-Sep-15 04:58N 34°32' E 135°18'0 0.1
2017-Sep-15 04:30N 34°32' E 135°18'0 0.1
2017-Sep-15 03:55N 34°32' E 135°18'1 3.5
2017-Sep-15 03:30N 34°33' E 135°16'713.4
2017-Sep-15 03:00N 34°34' E 135°08'  
Track history (hours):
 
Tides and Currents Weather Stations Pressure Air Temp Water Temp Dewpoint Dewpoint Depression Visibility Wind Speed Wind Dir Waves Ship Positions

Koushinmaru

Last reported at 2017-Sep-24 06:00 UTC. Time now 2017-Sep-24 19:23 UTC.
Position N 34°37' E 134°57'.

Length 75 m; draft 4.3 m.

Type: Ship. MMSI: 431005815.

Date/timePositionNaut miles runAvg speedWind from/ knotsBaromVisibWave heightAir tempDewpointWater temp
2017-Sep-24 06:00N 34°37' E 134°57'510.2
2017-Sep-24 05:30N 34°36' E 135°03'612.2
2017-Sep-24 05:00N 34°35' E 135°10'712.9
2017-Sep-24 04:29N 34°33' E 135°18'613.0
2017-Sep-24 04:00N 34°33' E 135°26'0 0.3
2017-Sep-24 02:33N 34°34' E 135°26'0 0.0
2017-Sep-24 02:30N 34°34' E 135°26'0 0.0
2017-Sep-24 01:27N 34°34' E 135°26'1 1.2
2017-Sep-24 01:00N 34°33' E 135°25'4 7.6
2017-Sep-24 00:30N 34°33' E 135°21'3 5.1
2017-Sep-24 00:00N 34°33' E 135°18'0 0.0
2017-Sep-23 23:30N 34°33' E 135°18'0 0.0
2017-Sep-23 23:00N 34°33' E 135°18'0 0.0
2017-Sep-23 22:30N 34°33' E 135°18'0 0.0
2017-Sep-23 22:00N 34°33' E 135°18'0 0.0
2017-Sep-23 21:30N 34°33' E 135°18'0 0.0
2017-Sep-23 21:00N 34°33' E 135°18'0 0.0
2017-Sep-23 20:30N 34°33' E 135°18'0 0.0
2017-Sep-23 20:00N 34°33' E 135°18'  
2017-Sep-15 12:42N 34°36' E 134°54'212.0
2017-Sep-15 12:30N 34°37' E 134°57'510.2
2017-Sep-15 12:00N 34°36' E 135°03'612.3
2017-Sep-15 11:30N 34°35' E 135°10'612.8
2017-Sep-15 11:00N 34°34' E 135°18'612.7
2017-Sep-15 10:30N 34°33' E 135°25'1 0.2
2017-Sep-15 07:19N 34°34' E 135°26'0 0.1
2017-Sep-15 06:54N 34°34' E 135°26'1 1.6
2017-Sep-15 06:30N 34°33' E 135°25'3 6.3
2017-Sep-15 06:00N 34°33' E 135°22'3 6.2
2017-Sep-15 05:30N 34°32' E 135°18'0 0.0
2017-Sep-15 04:58N 34°32' E 135°18'0 0.1
2017-Sep-15 04:30N 34°32' E 135°18'0 0.1
2017-Sep-15 03:55N 34°32' E 135°18'1 3.5
2017-Sep-15 03:30N 34°33' E 135°16'713.4
2017-Sep-15 03:00N 34°34' E 135°08'  

Dump ship's entire track history